sensor_id;sensor_type;location;lat;lon;timestamp;pressure;altitude;pressure_sealevel;temperature;humidity
76653;BME280;65563;45.970;12.680;2023-04-06T00:00:28;101727.44;;;5.58;50.72
76653;BME280;65563;45.970;12.680;2023-04-06T00:01:28;101724.91;;;5.57;50.37
76653;BME280;65563;45.970;12.680;2023-04-06T00:02:28;101721.28;;;5.48;50.63
76653;BME280;65563;45.970;12.680;2023-04-06T00:03:29;101724.22;;;5.55;50.95
76653;BME280;65563;45.970;12.680;2023-04-06T00:04:29;101721.75;;;5.63;50.69
76653;BME280;65563;45.970;12.680;2023-04-06T00:05:29;101713.22;;;5.49;50.94
76653;BME280;65563;45.970;12.680;2023-04-06T00:06:29;101714.94;;;5.60;50.31
76653;BME280;65563;45.970;12.680;2023-04-06T00:07:29;101713.94;;;5.52;50.58
76653;BME280;65563;45.970;12.680;2023-04-06T00:08:29;101708.53;;;5.53;50.69
76653;BME280;65563;45.970;12.680;2023-04-06T00:09:30;101718.19;;;5.43;50.56
76653;BME280;65563;45.970;12.680;2023-04-06T00:10:30;101711.69;;;5.47;50.15
76653;BME280;65563;45.970;12.680;2023-04-06T00:11:30;101710.44;;;5.41;50.01
76653;BME280;65563;45.970;12.680;2023-04-06T00:12:30;101719.03;;;5.43;49.82
76653;BME280;65563;45.970;12.680;2023-04-06T00:13:30;101709.78;;;5.28;51.03
76653;BME280;65563;45.970;12.680;2023-04-06T00:14:31;101713.09;;;5.20;50.46
76653;BME280;65563;45.970;12.680;2023-04-06T00:15:31;101714.16;;;5.39;50.64
76653;BME280;65563;45.970;12.680;2023-04-06T00:16:31;101712.66;;;5.46;49.42
76653;BME280;65563;45.970;12.680;2023-04-06T00:17:31;101710.16;;;5.44;49.44
76653;BME280;65563;45.970;12.680;2023-04-06T00:18:31;101707.97;;;5.49;49.40
76653;BME280;65563;45.970;12.680;2023-04-06T00:19:31;101705.94;;;5.32;50.01
76653;BME280;65563;45.970;12.680;2023-04-06T00:20:32;101706.72;;;5.23;50.63
76653;BME280;65563;45.970;12.680;2023-04-06T00:21:32;101700.59;;;5.22;50.65
76653;BME280;65563;45.970;12.680;2023-04-06T00:22:32;101706.72;;;5.23;50.64
76653;BME280;65563;45.970;12.680;2023-04-06T00:23:32;101703.06;;;5.14;51.06
76653;BME280;65563;45.970;12.680;2023-04-06T00:24:32;101697.47;;;5.08;50.98
76653;BME280;65563;45.970;12.680;2023-04-06T00:25:32;101706.78;;;5.12;51.07
76653;BME280;65563;45.970;12.680;2023-04-06T00:26:33;101701.41;;;5.13;50.73
76653;BME280;65563;45.970;12.680;2023-04-06T00:27:33;101701.97;;;5.17;50.28
76653;BME280;65563;45.970;12.680;2023-04-06T00:28:33;101705.25;;;5.09;50.73
76653;BME280;65563;45.970;12.680;2023-04-06T00:29:33;101703.81;;;5.05;51.27
76653;BME280;65563;45.970;12.680;2023-04-06T00:30:33;101698.88;;;5.12;50.98
76653;BME280;65563;45.970;12.680;2023-04-06T00:31:33;101699.66;;;5.23;50.43
76653;BME280;65563;45.970;12.680;2023-04-06T00:32:34;101708.97;;;5.28;50.54
76653;BME280;65563;45.970;12.680;2023-04-06T00:33:34;101697.84;;;5.24;50.52
76653;BME280;65563;45.970;12.680;2023-04-06T00:34:34;101700.75;;;5.21;51.10
76653;BME280;65563;45.970;12.680;2023-04-06T00:35:34;101701.72;;;5.20;51.38
76653;BME280;65563;45.970;12.680;2023-04-06T00:36:35;101700.28;;;5.16;51.32
76653;BME280;65563;45.970;12.680;2023-04-06T00:37:35;101696.63;;;5.28;50.96
76653;BME280;65563;45.970;12.680;2023-04-06T00:38:35;101700.09;;;5.29;51.12
76653;BME280;65563;45.970;12.680;2023-04-06T00:39:35;101700.09;;;5.29;50.82
76653;BME280;65563;45.970;12.680;2023-04-06T00:40:35;101706.59;;;5.24;50.64
76653;BME280;65563;45.970;12.680;2023-04-06T00:41:36;101704.97;;;5.33;50.65
76653;BME280;65563;45.970;12.680;2023-04-06T00:42:36;101702.16;;;5.25;51.22
76653;BME280;65563;45.970;12.680;2023-04-06T00:43:36;101703.06;;;5.14;51.14
76653;BME280;65563;45.970;12.680;2023-04-06T00:44:36;101698.31;;;5.08;51.14
76653;BME280;65563;45.970;12.680;2023-04-06T00:45:40;101708.50;;;5.01;51.44
76653;BME280;65563;45.970;12.680;2023-04-06T00:46:40;101704.81;;;5.04;52.12
76653;BME280;65563;45.970;12.680;2023-04-06T00:47:40;101708.84;;;5.08;51.59
76653;BME280;65563;45.970;12.680;2023-04-06T00:48:40;101700.75;;;5.00;51.29
76653;BME280;65563;45.970;12.680;2023-04-06T00:49:41;101706.22;;;4.87;51.36
76653;BME280;65563;45.970;12.680;2023-04-06T00:50:41;101697.72;;;4.84;51.50
76653;BME280;65563;45.970;12.680;2023-04-06T00:51:42;101697.88;;;4.82;51.50
76653;BME280;65563;45.970;12.680;2023-04-06T00:52:42;101704.78;;;4.83;51.78
76653;BME280;65563;45.970;12.680;2023-04-06T00:53:42;101694.34;;;4.72;51.80
76653;BME280;65563;45.970;12.680;2023-04-06T00:54:42;101696.72;;;4.75;51.67
76653;BME280;65563;45.970;12.680;2023-04-06T00:55:43;101694.41;;;4.82;51.29
76653;BME280;65563;45.970;12.680;2023-04-06T00:56:43;101697.34;;;4.67;51.78
76653;BME280;65563;45.970;12.680;2023-04-06T00:57:43;101693.69;;;4.79;51.39
76653;BME280;65563;45.970;12.680;2023-04-06T00:58:43;101695.06;;;4.74;51.51
76653;BME280;65563;45.970;12.680;2023-04-06T00:59:44;101698.38;;;4.76;51.03
76653;BME280;65563;45.970;12.680;2023-04-06T01:00:44;101695.25;;;4.82;50.96
76653;BME280;65563;45.970;12.680;2023-04-06T01:01:44;101686.28;;;4.73;51.03
76653;BME280;65563;45.970;12.680;2023-04-06T01:02:45;101695.09;;;4.63;51.47
76653;BME280;65563;45.970;12.680;2023-04-06T01:03:45;101689.78;;;4.74;51.39
76653;BME280;65563;45.970;12.680;2023-04-06T01:04:45;101689.63;;;4.54;51.93
76653;BME280;65563;45.970;12.680;2023-04-06T01:05:45;101685.53;;;4.62;52.30
76653;BME280;65563;45.970;12.680;2023-04-06T01:06:45;101685.69;;;4.81;51.78
76653;BME280;65563;45.970;12.680;2023-04-06T01:07:46;101689.25;;;4.80;50.96
76653;BME280;65563;45.970;12.680;2023-04-06T01:08:46;101684.47;;;4.85;50.65
76653;BME280;65563;45.970;12.680;2023-04-06T01:09:46;101688.31;;;4.81;51.02
76653;BME280;65563;45.970;12.680;2023-04-06T01:10:46;101689.41;;;4.78;51.22
76653;BME280;65563;45.970;12.680;2023-04-06T01:11:46;101682.59;;;4.76;50.66
76653;BME280;65563;45.970;12.680;2023-04-06T01:12:47;101684.06;;;4.69;51.86
76653;BME280;65563;45.970;12.680;2023-04-06T01:13:47;101673.94;;;4.64;51.59
76653;BME280;65563;45.970;12.680;2023-04-06T01:14:47;101682.19;;;4.60;51.91
76653;BME280;65563;45.970;12.680;2023-04-06T01:15:48;101679.25;;;4.74;51.95
76653;BME280;65563;45.970;12.680;2023-04-06T01:16:48;101678.78;;;4.69;51.80
76653;BME280;65563;45.970;12.680;2023-04-06T01:17:48;101684.69;;;4.61;51.84
76653;BME280;65563;45.970;12.680;2023-04-06T01:18:48;101677.50;;;4.63;52.08
76653;BME280;65563;45.970;12.680;2023-04-06T01:19:48;101681.09;;;4.62;51.82
76653;BME280;65563;45.970;12.680;2023-04-06T01:20:49;101681.31;;;4.70;52.32
76653;BME280;65563;45.970;12.680;2023-04-06T01:21:49;101678.72;;;4.80;51.57
76653;BME280;65563;45.970;12.680;2023-04-06T01:22:49;101676.56;;;4.64;52.23
76653;BME280;65563;45.970;12.680;2023-04-06T01:23:49;101678.38;;;4.52;52.35
76653;BME280;65563;45.970;12.680;2023-04-06T01:24:49;101682.19;;;4.60;51.73
76653;BME280;65563;45.970;12.680;2023-04-06T01:25:49;101673.34;;;4.61;51.85
76653;BME280;65563;45.970;12.680;2023-04-06T01:26:50;101684.38;;;4.54;52.46
76653;BME280;65563;45.970;12.680;2023-04-06T01:27:50;101679.53;;;4.60;51.98
76653;BME280;65563;45.970;12.680;2023-04-06T01:28:50;101679.03;;;4.66;51.94
76653;BME280;65563;45.970;12.680;2023-04-06T01:29:50;101680.25;;;4.62;51.94
76653;BME280;65563;45.970;12.680;2023-04-06T01:30:50;101671.50;;;4.40;52.54
76653;BME280;65563;45.970;12.680;2023-04-06T01:31:51;101674.59;;;4.45;52.09
76653;BME280;65563;45.970;12.680;2023-04-06T01:32:51;101674.91;;;4.52;51.66
76653;BME280;65563;45.970;12.680;2023-04-06T01:33:51;101673.66;;;4.35;52.22
76653;BME280;65563;45.970;12.680;2023-04-06T01:34:51;101672.00;;;4.34;53.07
76653;BME280;65563;45.970;12.680;2023-04-06T01:35:51;101674.06;;;4.30;52.57
76653;BME280;65563;45.970;12.680;2023-04-06T01:36:51;101680.38;;;4.39;53.35
76653;BME280;65563;45.970;12.680;2023-04-06T01:37:52;101674.09;;;4.51;52.91
76653;BME280;65563;45.970;12.680;2023-04-06T01:38:52;101669.06;;;4.48;52.92
76653;BME280;65563;45.970;12.680;2023-04-06T01:39:52;101662.59;;;4.52;52.91
76653;BME280;65563;45.970;12.680;2023-04-06T01:40:53;101667.16;;;4.50;52.89
76653;BME280;65563;45.970;12.680;2023-04-06T01:41:53;101661.09;;;4.50;53.12
76653;BME280;65563;45.970;12.680;2023-04-06T01:42:53;101666.91;;;4.53;53.30
76653;BME280;65563;45.970;12.680;2023-04-06T01:43:53;101669.91;;;4.49;54.04
76653;BME280;65563;45.970;12.680;2023-04-06T01:44:53;101662.50;;;4.54;53.41
76653;BME280;65563;45.970;12.680;2023-04-06T01:45:54;101663.56;;;4.51;53.59
76653;BME280;65563;45.970;12.680;2023-04-06T01:46:54;101658.56;;;4.48;53.27
76653;BME280;65563;45.970;12.680;2023-04-06T01:47:54;101661.31;;;4.47;53.23
76653;BME280;65563;45.970;12.680;2023-04-06T01:48:54;101663.28;;;4.34;54.50
76653;BME280;65563;45.970;12.680;2023-04-06T01:49:54;101662.59;;;4.52;53.81
76653;BME280;65563;45.970;12.680;2023-04-06T01:50:54;101666.25;;;4.40;53.98
76653;BME280;65563;45.970;12.680;2023-04-06T01:51:55;101672.50;;;4.28;54.37
76653;BME280;65563;45.970;12.680;2023-04-06T01:52:55;101666.41;;;4.27;54.15
76653;BME280;65563;45.970;12.680;2023-04-06T01:53:55;101670.63;;;4.19;54.88
76653;BME280;65563;45.970;12.680;2023-04-06T01:54:55;101657.50;;;4.19;54.23
76653;BME280;65563;45.970;12.680;2023-04-06T01:55:55;101660.81;;;4.21;54.27
76653;BME280;65563;45.970;12.680;2023-04-06T01:56:56;101664.31;;;4.10;54.86
76653;BME280;65563;45.970;12.680;2023-04-06T01:57:56;101664.31;;;4.21;54.44
76653;BME280;65563;45.970;12.680;2023-04-06T01:58:56;101665.59;;;4.27;55.67
76653;BME280;65563;45.970;12.680;2023-04-06T01:59:56;101664.31;;;4.21;55.02
76653;BME280;65563;45.970;12.680;2023-04-06T02:00:56;101659.97;;;4.20;54.72
76653;BME280;65563;45.970;12.680;2023-04-06T02:01:56;101660.66;;;4.34;53.94
76653;BME280;65563;45.970;12.680;2023-04-06T02:02:57;101660.91;;;4.30;53.92
76653;BME280;65563;45.970;12.680;2023-04-06T02:03:57;101664.84;;;4.36;53.98
76653;BME280;65563;45.970;12.680;2023-04-06T02:04:57;101660.84;;;4.53;53.32
76653;BME280;65563;45.970;12.680;2023-04-06T02:05:57;101657.03;;;4.67;52.97
76653;BME280;65563;45.970;12.680;2023-04-06T02:06:57;101659.34;;;4.60;52.89
76653;BME280;65563;45.970;12.680;2023-04-06T02:07:57;101661.72;;;4.63;52.31
76653;BME280;65563;45.970;12.680;2023-04-06T02:08:58;101667.16;;;4.50;52.77
76653;BME280;65563;45.970;12.680;2023-04-06T02:09:58;101666.97;;;4.42;53.42
76653;BME280;65563;45.970;12.680;2023-04-06T02:10:58;101664.50;;;4.29;53.82
76653;BME280;65563;45.970;12.680;2023-04-06T02:11:58;101671.41;;;4.30;54.07
76653;BME280;65563;45.970;12.680;2023-04-06T02:12:58;101665.78;;;4.35;53.69
76653;BME280;65563;45.970;12.680;2023-04-06T02:13:58;101665.34;;;4.30;53.52
76653;BME280;65563;45.970;12.680;2023-04-06T02:14:58;101666.59;;;4.15;53.71
76653;BME280;65563;45.970;12.680;2023-04-06T02:15:59;101669.59;;;3.99;54.49
76653;BME280;65563;45.970;12.680;2023-04-06T02:16:59;101664.22;;;4.12;54.54
76653;BME280;65563;45.970;12.680;2023-04-06T02:17:59;101662.59;;;4.20;54.90
76653;BME280;65563;45.970;12.680;2023-04-06T02:18:59;101661.56;;;4.12;54.76
76653;BME280;65563;45.970;12.680;2023-04-06T02:19:59;101668.97;;;4.06;54.45
76653;BME280;65563;45.970;12.680;2023-04-06T02:21:00;101658.97;;;4.00;54.36
76653;BME280;65563;45.970;12.680;2023-04-06T02:22:00;101663.72;;;4.06;54.70
76653;BME280;65563;45.970;12.680;2023-04-06T02:23:00;101668.75;;;4.10;54.21
76653;BME280;65563;45.970;12.680;2023-04-06T02:24:00;101666.16;;;3.98;54.39
76653;BME280;65563;45.970;12.680;2023-04-06T02:25:00;101669.84;;;3.96;55.02
76653;BME280;65563;45.970;12.680;2023-04-06T02:26:00;101661.03;;;3.86;55.13
76653;BME280;65563;45.970;12.680;2023-04-06T02:27:01;101664.75;;;3.83;55.66
76653;BME280;65563;45.970;12.680;2023-04-06T02:28:01;101665.47;;;3.74;55.80
76653;BME280;65563;45.970;12.680;2023-04-06T02:29:01;101657.34;;;3.77;55.81
76653;BME280;65563;45.970;12.680;2023-04-06T02:30:04;101663.78;;;3.84;55.69
76653;BME280;65563;45.970;12.680;2023-04-06T02:31:05;101659.81;;;4.01;55.08
76653;BME280;65563;45.970;12.680;2023-04-06T02:32:05;101661.94;;;4.07;54.90
76653;BME280;65563;45.970;12.680;2023-04-06T02:33:05;101659.81;;;4.01;54.45
76653;BME280;65563;45.970;12.680;2023-04-06T02:34:05;101657.19;;;4.01;54.49
76653;BME280;65563;45.970;12.680;2023-04-06T02:35:05;101651.69;;;3.93;53.82
76653;BME280;65563;45.970;12.680;2023-04-06T02:36:05;101651.22;;;3.99;53.63
76653;BME280;65563;45.970;12.680;2023-04-06T02:37:06;101652.56;;;3.93;53.17
76653;BME280;65563;45.970;12.680;2023-04-06T02:38:06;101650.84;;;3.92;53.62
76653;BME280;65563;45.970;12.680;2023-04-06T02:39:06;101649.78;;;3.95;53.62
76653;BME280;65563;45.970;12.680;2023-04-06T02:40:06;101643.50;;;3.86;53.17
76653;BME280;65563;45.970;12.680;2023-04-06T02:41:07;101649.34;;;3.78;54.51
76653;BME280;65563;45.970;12.680;2023-04-06T02:42:07;101645.19;;;3.76;54.72
76653;BME280;65563;45.970;12.680;2023-04-06T02:43:07;101645.59;;;3.92;54.36
76653;BME280;65563;45.970;12.680;2023-04-06T02:44:07;101643.50;;;3.86;54.69
76653;BME280;65563;45.970;12.680;2023-04-06T02:45:08;101645.63;;;3.81;54.58
76653;BME280;65563;45.970;12.680;2023-04-06T02:46:08;101655.34;;;3.69;54.96
76653;BME280;65563;45.970;12.680;2023-04-06T02:47:08;101647.56;;;3.68;55.33
76653;BME280;65563;45.970;12.680;2023-04-06T02:48:08;101645.91;;;3.67;55.44
76653;BME280;65563;45.970;12.680;2023-04-06T02:49:09;101635.59;;;3.86;54.79
76653;BME280;65563;45.970;12.680;2023-04-06T02:50:09;101640.13;;;3.84;54.18
76653;BME280;65563;45.970;12.680;2023-04-06T02:51:09;101643.00;;;3.81;54.24
76653;BME280;65563;45.970;12.680;2023-04-06T02:52:09;101642.19;;;3.80;54.46
76653;BME280;65563;45.970;12.680;2023-04-06T02:53:09;101653.06;;;3.65;54.95
76653;BME280;65563;45.970;12.680;2023-04-06T02:54:10;101639.91;;;3.65;55.46
76653;BME280;65563;45.970;12.680;2023-04-06T02:55:10;101645.69;;;3.58;55.69
76653;BME280;65563;45.970;12.680;2023-04-06T02:56:10;101640.53;;;3.57;55.73
76653;BME280;65563;45.970;12.680;2023-04-06T02:57:10;101647.34;;;3.48;55.29
76653;BME280;65563;45.970;12.680;2023-04-06T02:58:10;101642.44;;;3.44;55.50
76653;BME280;65563;45.970;12.680;2023-04-06T02:59:10;101638.63;;;3.59;54.31
76653;BME280;65563;45.970;12.680;2023-04-06T03:00:11;101643.13;;;3.68;54.87
76653;BME280;65563;45.970;12.680;2023-04-06T03:01:11;101645.44;;;3.62;55.41
76653;BME280;65563;45.970;12.680;2023-04-06T03:02:11;101642.44;;;3.44;55.17
76653;BME280;65563;45.970;12.680;2023-04-06T03:03:11;101638.38;;;3.51;54.88
76653;BME280;65563;45.970;12.680;2023-04-06T03:04:12;101644.72;;;3.59;54.87
76653;BME280;65563;45.970;12.680;2023-04-06T03:05:12;101637.81;;;3.58;55.24
76653;BME280;65563;45.970;12.680;2023-04-06T03:06:12;101637.06;;;3.56;53.94
76653;BME280;65563;45.970;12.680;2023-04-06T03:07:12;101636.09;;;3.57;53.87
76653;BME280;65563;45.970;12.680;2023-04-06T03:08:12;101628.47;;;3.66;54.06
76653;BME280;65563;45.970;12.680;2023-04-06T03:09:12;101638.28;;;3.52;54.53
76653;BME280;65563;45.970;12.680;2023-04-06T03:10:13;101640.78;;;3.43;54.77
76653;BME280;65563;45.970;12.680;2023-04-06T03:11:13;101633.72;;;3.43;55.57
76653;BME280;65563;45.970;12.680;2023-04-06T03:12:13;101635.44;;;3.44;55.23
76653;BME280;65563;45.970;12.680;2023-04-06T03:13:13;101636.34;;;3.54;54.86
76653;BME280;65563;45.970;12.680;2023-04-06T03:14:13;101639.25;;;3.51;54.96
76653;BME280;65563;45.970;12.680;2023-04-06T03:15:14;101641.13;;;3.49;54.94
76653;BME280;65563;45.970;12.680;2023-04-06T03:16:14;101635.91;;;3.38;55.31
76653;BME280;65563;45.970;12.680;2023-04-06T03:17:14;101638.53;;;3.38;54.41
76653;BME280;65563;45.970;12.680;2023-04-06T03:18:14;101637.69;;;3.38;54.42
76653;BME280;65563;45.970;12.680;2023-04-06T03:19:14;101635.06;;;3.38;54.79
76653;BME280;65563;45.970;12.680;2023-04-06T03:20:14;101631.81;;;3.23;56.29
76653;BME280;65563;45.970;12.680;2023-04-06T03:21:14;101647.81;;;3.08;56.71
76653;BME280;65563;45.970;12.680;2023-04-06T03:22:15;101647.19;;;3.05;56.78
76653;BME280;65563;45.970;12.680;2023-04-06T03:23:15;101638.03;;;3.22;56.53
76653;BME280;65563;45.970;12.680;2023-04-06T03:24:15;101637.44;;;3.07;56.67
76653;BME280;65563;45.970;12.680;2023-04-06T03:25:15;101638.41;;;3.06;56.67
76653;BME280;65563;45.970;12.680;2023-04-06T03:26:15;101639.47;;;3.03;57.19
76653;BME280;65563;45.970;12.680;2023-04-06T03:27:15;101647.34;;;3.15;56.90
76653;BME280;65563;45.970;12.680;2023-04-06T03:28:16;101645.31;;;3.18;56.80
76653;BME280;65563;45.970;12.680;2023-04-06T03:29:16;101640.28;;;3.15;57.00
76653;BME280;65563;45.970;12.680;2023-04-06T03:30:17;101643.28;;;3.10;56.53
76653;BME280;65563;45.970;12.680;2023-04-06T03:31:17;101647.69;;;3.10;56.19
76653;BME280;65563;45.970;12.680;2023-04-06T03:32:17;101650.47;;;3.31;55.92
76653;BME280;65563;45.970;12.680;2023-04-06T03:33:17;101649.41;;;3.33;55.33
76653;BME280;65563;45.970;12.680;2023-04-06T03:34:17;101655.94;;;3.50;55.41
76653;BME280;65563;45.970;12.680;2023-04-06T03:35:18;101648.88;;;3.51;55.40
76653;BME280;65563;45.970;12.680;2023-04-06T03:36:18;101644.50;;;3.51;54.17
76653;BME280;65563;45.970;12.680;2023-04-06T03:37:18;101645.31;;;3.52;54.41
76653;BME280;65563;45.970;12.680;2023-04-06T03:38:18;101645.44;;;3.50;54.52
76653;BME280;65563;45.970;12.680;2023-04-06T03:39:18;101646.75;;;3.56;53.93
76653;BME280;65563;45.970;12.680;2023-04-06T03:40:18;101649.25;;;3.46;53.97
76653;BME280;65563;45.970;12.680;2023-04-06T03:41:19;101649.25;;;3.46;53.80
76653;BME280;65563;45.970;12.680;2023-04-06T03:42:19;101646.03;;;3.31;54.77
76653;BME280;65563;45.970;12.680;2023-04-06T03:43:19;101650.22;;;3.34;54.92
76653;BME280;65563;45.970;12.680;2023-04-06T03:44:19;101650.22;;;3.34;54.69
76653;BME280;65563;45.970;12.680;2023-04-06T03:45:19;101655.34;;;3.24;54.93
76653;BME280;65563;45.970;12.680;2023-04-06T03:46:19;101653.69;;;3.23;54.38
76653;BME280;65563;45.970;12.680;2023-04-06T03:47:20;101651.28;;;3.20;54.86
76653;BME280;65563;45.970;12.680;2023-04-06T03:48:20;101654.97;;;3.29;53.89
76653;BME280;65563;45.970;12.680;2023-04-06T03:49:20;101660.09;;;3.19;54.31
76653;BME280;65563;45.970;12.680;2023-04-06T03:50:20;101654.63;;;3.22;55.17
76653;BME280;65563;45.970;12.680;2023-04-06T03:51:20;101659.03;;;3.10;55.25
76653;BME280;65563;45.970;12.680;2023-04-06T03:52:21;101659.03;;;3.10;55.87
76653;BME280;65563;45.970;12.680;2023-04-06T03:53:21;101656.16;;;3.02;56.74
76653;BME280;65563;45.970;12.680;2023-04-06T03:54:21;101660.56;;;3.02;56.82
76653;BME280;65563;45.970;12.680;2023-04-06T03:55:21;101661.66;;;3.10;56.84
76653;BME280;65563;45.970;12.680;2023-04-06T03:56:21;101659.03;;;3.10;56.51
76653;BME280;65563;45.970;12.680;2023-04-06T03:57:21;101655.44;;;3.11;56.83
76653;BME280;65563;45.970;12.680;2023-04-06T03:58:22;101663.00;;;3.16;55.61
76653;BME280;65563;45.970;12.680;2023-04-06T03:59:22;101661.06;;;3.18;55.64
76653;BME280;65563;45.970;12.680;2023-04-06T04:00:22;101659.41;;;3.28;54.86
76653;BME280;65563;45.970;12.680;2023-04-06T04:01:22;101658.81;;;3.36;54.99
76653;BME280;65563;45.970;12.680;2023-04-06T04:02:22;101662.16;;;3.27;55.65
76653;BME280;65563;45.970;12.680;2023-04-06T04:03:23;101665.84;;;3.24;55.63
76653;BME280;65563;45.970;12.680;2023-04-06T04:04:23;101672.75;;;3.14;56.09
76653;BME280;65563;45.970;12.680;2023-04-06T04:05:23;101663.69;;;3.18;55.70
76653;BME280;65563;45.970;12.680;2023-04-06T04:06:23;101667.38;;;3.04;55.37
76653;BME280;65563;45.970;12.680;2023-04-06T04:07:23;101672.50;;;3.06;55.58
76653;BME280;65563;45.970;12.680;2023-04-06T04:08:24;101670.72;;;2.95;56.35
76653;BME280;65563;45.970;12.680;2023-04-06T04:09:24;101666.97;;;2.86;57.14
76653;BME280;65563;45.970;12.680;2023-04-06T04:10:24;101670.50;;;3.09;55.71
76653;BME280;65563;45.970;12.680;2023-04-06T04:11:24;101671.09;;;3.13;55.25
76653;BME280;65563;45.970;12.680;2023-04-06T04:12:24;101672.63;;;3.16;54.74
76653;BME280;65563;45.970;12.680;2023-04-06T04:13:25;101669.66;;;3.20;54.35
76653;BME280;65563;45.970;12.680;2023-04-06T04:14:25;101675.28;;;3.27;53.70
76653;BME280;65563;45.970;12.680;2023-04-06T04:15:25;101669.31;;;3.25;54.11
76653;BME280;65563;45.970;12.680;2023-04-06T04:16:25;101672.28;;;3.20;54.16
76653;BME280;65563;45.970;12.680;2023-04-06T04:17:25;101670.50;;;3.21;54.00
76653;BME280;65563;45.970;12.680;2023-04-06T04:18:26;101675.59;;;3.11;54.04
76653;BME280;65563;45.970;12.680;2023-04-06T04:19:26;101673.59;;;3.15;53.85
76653;BME280;65563;45.970;12.680;2023-04-06T04:20:26;101673.34;;;3.18;54.83
76653;BME280;65563;45.970;12.680;2023-04-06T04:21:29;101677.75;;;3.06;56.24
76653;BME280;65563;45.970;12.680;2023-04-06T04:22:29;101680.75;;;3.13;56.21
76653;BME280;65563;45.970;12.680;2023-04-06T04:23:29;101672.97;;;3.11;56.48
76653;BME280;65563;45.970;12.680;2023-04-06T04:24:30;101675.84;;;3.08;56.31
76653;BME280;65563;45.970;12.680;2023-04-06T04:25:30;101675.59;;;3.00;58.45
76653;BME280;65563;45.970;12.680;2023-04-06T04:26:30;101681.31;;;3.05;55.26
76653;BME280;65563;45.970;12.680;2023-04-06T04:27:30;101678.47;;;3.08;54.92
76653;BME280;65563;45.970;12.680;2023-04-06T04:28:30;101673.81;;;3.11;54.08
76653;BME280;65563;45.970;12.680;2023-04-06T04:29:31;101678.97;;;3.13;53.88
76653;BME280;65563;45.970;12.680;2023-04-06T04:30:31;101677.03;;;3.15;54.24
76653;BME280;65563;45.970;12.680;2023-04-06T04:31:31;101679.06;;;3.23;54.14
76653;BME280;65563;45.970;12.680;2023-04-06T04:32:31;101672.75;;;3.14;55.08
76653;BME280;65563;45.970;12.680;2023-04-06T04:33:31;101670.97;;;3.15;54.87
76653;BME280;65563;45.970;12.680;2023-04-06T04:34:31;101678.13;;;3.13;54.92
76653;BME280;65563;45.970;12.680;2023-04-06T04:35:32;101676.56;;;3.21;55.19
76653;BME280;65563;45.970;12.680;2023-04-06T04:36:32;101676.94;;;3.17;55.33
76653;BME280;65563;45.970;12.680;2023-04-06T04:37:32;101684.59;;;3.20;55.31
76653;BME280;65563;45.970;12.680;2023-04-06T04:38:32;101679.78;;;3.14;55.86
76653;BME280;65563;45.970;12.680;2023-04-06T04:39:32;101677.28;;;3.12;56.28
76653;BME280;65563;45.970;12.680;2023-04-06T04:40:33;101685.03;;;3.14;56.31
76653;BME280;65563;45.970;12.680;2023-04-06T04:41:33;101684.66;;;3.07;56.06
76653;BME280;65563;45.970;12.680;2023-04-06T04:42:33;101688.03;;;3.09;56.62
76653;BME280;65563;45.970;12.680;2023-04-06T04:43:33;101684.53;;;3.08;56.68
76653;BME280;65563;45.970;12.680;2023-04-06T04:44:33;101681.47;;;3.15;56.52
76653;BME280;65563;45.970;12.680;2023-04-06T04:45:34;101689.09;;;3.06;57.72
76653;BME280;65563;45.970;12.680;2023-04-06T04:46:34;101688.34;;;3.04;57.96
76653;BME280;65563;45.970;12.680;2023-04-06T04:47:34;101689.19;;;3.05;57.24
76653;BME280;65563;45.970;12.680;2023-04-06T04:48:34;101689.31;;;3.03;57.58
76653;BME280;65563;45.970;12.680;2023-04-06T04:49:35;101686.34;;;3.08;57.45
76653;BME280;65563;45.970;12.680;2023-04-06T04:50:35;101686.72;;;3.15;57.62
76653;BME280;65563;45.970;12.680;2023-04-06T04:51:35;101686.94;;;3.11;56.58
76653;BME280;65563;45.970;12.680;2023-04-06T04:52:37;101685.03;;;3.14;57.21
76653;BME280;65563;45.970;12.680;2023-04-06T04:53:37;101677.63;;;3.19;56.71
76653;BME280;65563;45.970;12.680;2023-04-06T04:54:37;101684.81;;;3.17;57.19
76653;BME280;65563;45.970;12.680;2023-04-06T04:55:37;101683.72;;;3.19;57.24
76653;BME280;65563;45.970;12.680;2023-04-06T04:56:37;101690.44;;;3.23;57.10
76653;BME280;65563;45.970;12.680;2023-04-06T04:57:37;101681.50;;;3.37;56.22
76653;BME280;65563;45.970;12.680;2023-04-06T04:58:38;101684.81;;;3.17;56.90
76653;BME280;65563;45.970;12.680;2023-04-06T04:59:38;101689.69;;;3.10;56.21
76653;BME280;65563;45.970;12.680;2023-04-06T05:00:38;101683.00;;;3.06;56.97
76653;BME280;65563;45.970;12.680;2023-04-06T05:01:38;101690.53;;;3.10;56.80
76653;BME280;65563;45.970;12.680;2023-04-06T05:02:38;101694.78;;;3.00;57.46
76653;BME280;65563;45.970;12.680;2023-04-06T05:03:38;101690.50;;;2.99;56.83
76653;BME280;65563;45.970;12.680;2023-04-06T05:04:39;101686.25;;;3.09;57.05
76653;BME280;65563;45.970;12.680;2023-04-06T05:05:39;101688.03;;;3.09;56.80
76653;BME280;65563;45.970;12.680;2023-04-06T05:06:39;101689.56;;;3.23;56.71
76653;BME280;65563;45.970;12.680;2023-04-06T05:07:39;101689.47;;;3.13;56.19
76653;BME280;65563;45.970;12.680;2023-04-06T05:08:40;101690.06;;;3.17;56.44
76653;BME280;65563;45.970;12.680;2023-04-06T05:09:40;101691.81;;;3.05;56.65
76653;BME280;65563;45.970;12.680;2023-04-06T05:10:40;101689.53;;;3.00;57.12
76653;BME280;65563;45.970;12.680;2023-04-06T05:11:41;101693.34;;;2.96;57.07
76653;BME280;65563;45.970;12.680;2023-04-06T05:12:41;101694.34;;;3.06;57.07
76653;BME280;65563;45.970;12.680;2023-04-06T05:13:41;101694.22;;;3.08;56.03
76653;BME280;65563;45.970;12.680;2023-04-06T05:14:41;101703.03;;;2.96;56.94